Time;durP1;ratioP1;P1;durP2;ratioP2;P2;SDS_P1;SDS_P2;PMS_P1;PMS_P2;Temp;Humidity;BMP_temperature;BMP_pressure;BME280_temperature;BME280_humidity;BME280_pressure;Samples;Min_cycle;Max_cycle;Signal;HPM_P1;HPM_P2
2022/07/01 00:00:29;;;;;;;3.65;1.65;;;15.30;99.90;;;;;;5112342;28;20047;-74
2022/07/01 00:02:57;;;;;;;3.97;1.42;;;15.30;99.90;;;;;;5112629;28;20552;-74
2022/07/01 00:05:24;;;;;;;2.95;1.30;;;15.20;99.90;;;;;;5113254;28;20047;-73
2022/07/01 00:07:51;;;;;;;3.90;1.35;;;15.30;99.90;;;;;;5112346;28;20067;-73
2022/07/01 00:10:18;;;;;;;4.93;1.80;;;15.30;99.90;;;;;;5114003;28;20112;-74
2022/07/01 00:12:45;;;;;;;4.47;1.35;;;15.30;99.90;;;;;;5114001;28;20048;-73
2022/07/01 00:15:11;;;;;;;6.28;1.40;;;15.30;99.90;;;;;;5111874;28;20052;-72
2022/07/01 00:17:39;;;;;;;2.80;1.40;;;15.30;99.90;;;;;;5113873;28;20051;-73
2022/07/01 00:20:09;;;;;;;6.20;2.28;;;15.30;99.90;;;;;;5112124;28;20086;-73
2022/07/01 00:22:35;;;;;;;2.70;1.15;;;15.30;99.90;;;;;;5113751;28;20452;-73
2022/07/01 00:25:02;;;;;;;4.25;1.40;;;15.30;99.90;;;;;;5112446;28;20047;-72
2022/07/01 00:27:29;;;;;;;5.93;1.85;;;15.30;99.90;;;;;;5128972;27;20051;-73
2022/07/01 00:29:56;;;;;;;3.95;1.70;;;15.30;99.90;;;;;;5113675;28;20044;-73
2022/07/01 00:32:23;;;;;;;3.85;1.40;;;15.30;99.90;;;;;;5113483;28;20039;-73
2022/07/01 00:34:50;;;;;;;2.92;1.67;;;15.40;99.90;;;;;;5112236;28;20453;-73
2022/07/01 00:37:18;;;;;;;3.60;2.10;;;15.40;99.90;;;;;;5113783;28;20052;-74
2022/07/01 00:39:45;;;;;;;7.53;2.03;;;15.50;99.90;;;;;;5113413;28;20051;-74
2022/07/01 00:42:12;;;;;;;5.57;2.00;;;15.50;99.90;;;;;;5115274;28;20461;-73
2022/07/01 00:44:39;;;;;;;4.90;2.08;;;15.40;99.90;;;;;;5115779;28;20047;-73
2022/07/01 00:47:11;;;;;;;3.67;2.00;;;15.40;99.90;;;;;;5115286;27;20662;-74
2022/07/01 00:49:38;;;;;;;3.22;1.83;;;15.50;99.90;;;;;;5115282;28;20083;-73
2022/07/01 00:52:06;;;;;;;4.45;2.03;;;15.40;99.90;;;;;;5115866;28;20096;-74
2022/07/01 00:54:36;;;;;;;4.10;2.22;;;15.40;99.90;;;;;;5115045;28;20092;-73
2022/07/01 00:57:07;;;;;;;4.20;2.25;;;15.40;99.90;;;;;;5115305;28;20437;-73
2022/07/01 00:59:35;;;;;;;3.67;1.77;;;15.50;99.90;;;;;;5133803;27;20043;-74
2022/07/01 01:02:02;;;;;;;3.60;1.67;;;15.50;99.90;;;;;;5115682;28;20134;-74
2022/07/01 01:04:29;;;;;;;2.83;1.65;;;15.50;99.90;;;;;;5135139;27;20051;-73
2022/07/01 01:06:57;;;;;;;3.17;1.48;;;15.50;99.90;;;;;;5137995;27;20083;-74
2022/07/01 01:09:25;;;;;;;5.22;2.00;;;15.40;99.90;;;;;;5124389;27;20047;-74
2022/07/01 01:11:53;;;;;;;3.10;1.38;;;15.40;99.90;;;;;;5138137;27;20055;-73
2022/07/01 01:14:21;;;;;;;3.20;1.20;;;15.40;99.90;;;;;;5137812;27;20053;-73
2022/07/01 01:16:48;;;;;;;2.40;1.20;;;15.40;99.90;;;;;;5137293;27;20104;-74
2022/07/01 01:19:15;;;;;;;3.20;1.40;;;15.40;99.90;;;;;;5119660;27;20050;-74
2022/07/01 01:21:43;;;;;;;2.95;1.20;;;15.40;99.90;;;;;;5119230;27;20537;-73
2022/07/01 01:24:10;;;;;;;5.53;1.45;;;15.40;99.90;;;;;;5137072;27;20103;-74
2022/07/01 01:26:38;;;;;;;2.78;1.20;;;15.40;99.90;;;;;;5137786;27;20097;-73
2022/07/01 01:29:07;;;;;;;3.92;1.20;;;15.40;99.90;;;;;;5119376;27;20047;-74
2022/07/01 01:31:34;;;;;;;2.53;1.42;;;15.40;99.90;;;;;;5118763;27;20506;-74
2022/07/01 01:34:01;;;;;;;3.90;1.58;;;15.30;99.90;;;;;;5137597;27;20061;-73
2022/07/01 01:36:28;;;;;;;2.70;1.40;;;15.20;99.90;;;;;;5118856;27;20104;-73
2022/07/01 01:38:58;;;;;;;2.72;1.10;;;15.30;99.90;;;;;;5136790;27;20055;-72
2022/07/01 01:41:25;;;;;;;3.10;1.20;;;15.20;99.90;;;;;;5119081;27;20126;-73
2022/07/01 01:43:51;;;;;;;3.00;1.50;;;15.20;99.90;;;;;;5118715;27;20112;-73
2022/07/01 01:46:18;;;;;;;4.32;1.70;;;15.20;99.90;;;;;;5136862;27;20051;-73
2022/07/01 01:48:45;;;;;;;2.65;1.30;;;15.20;99.90;;;;;;5119027;27;20383;-73
2022/07/01 01:51:12;;;;;;;2.90;1.40;;;15.20;99.90;;;;;;5136829;27;20403;-74
2022/07/01 01:53:39;;;;;;;3.10;1.70;;;15.20;99.90;;;;;;5136650;27;20043;-73
2022/07/01 01:56:07;;;;;;;3.35;1.40;;;15.20;99.90;;;;;;5118408;27;20043;-73
2022/07/01 01:58:34;;;;;;;3.33;1.60;;;15.20;99.90;;;;;;5118323;27;20047;-75
2022/07/01 02:01:01;;;;;;;3.88;1.70;;;15.20;99.90;;;;;;5137086;27;20068;-73
2022/07/01 02:03:28;;;;;;;3.63;1.80;;;15.20;99.90;;;;;;5118579;27;20129;-74
2022/07/01 02:05:55;;;;;;;3.15;1.52;;;15.20;99.90;;;;;;5153507;27;20417;-73
2022/07/01 02:08:22;;;;;;;4.25;1.70;;;15.20;99.90;;;;;;5139360;27;20103;-74
2022/07/01 02:10:49;;;;;;;3.08;1.48;;;15.20;99.90;;;;;;5138897;27;20483;-74
2022/07/01 02:13:17;;;;;;;3.95;1.65;;;15.20;99.90;;;;;;5157005;27;20039;-73
2022/07/01 02:15:44;;;;;;;3.08;1.38;;;15.20;99.90;;;;;;5156504;27;20550;-73
2022/07/01 02:18:11;;;;;;;3.40;1.50;;;15.20;99.90;;;;;;5139161;27;20573;-74
2022/07/01 02:20:38;;;;;;;3.78;1.23;;;15.20;99.90;;;;;;5134481;27;20430;-75
2022/07/01 02:23:05;;;;;;;2.63;1.33;;;15.20;99.90;;;;;;5137305;27;20047;-75
2022/07/01 02:25:32;;;;;;;2.10;1.00;;;15.20;99.90;;;;;;5117791;27;20050;-74
2022/07/01 02:27:58;;;;;;;4.65;1.45;;;15.10;99.90;;;;;;5117586;27;20464;-74
2022/07/01 02:30:27;;;;;;;2.25;1.40;;;15.10;99.90;;;;;;5136831;27;20081;-74
2022/07/01 02:32:54;;;;;;;3.75;1.60;;;15.10;99.90;;;;;;5136376;27;20130;-73
2022/07/01 02:35:21;;;;;;;5.47;1.73;;;15.20;99.90;;;;;;5117878;27;20044;-74
2022/07/01 02:37:48;;;;;;;2.75;1.40;;;15.10;99.90;;;;;;5136431;27;20047;-73
2022/07/01 02:40:15;;;;;;;4.00;1.63;;;15.10;99.90;;;;;;5136081;27;20494;-74
2022/07/01 02:42:42;;;;;;;2.10;1.30;;;15.10;99.90;;;;;;5113998;28;20455;-74
2022/07/01 02:45:09;;;;;;;2.38;1.33;;;15.00;99.90;;;;;;5114375;28;20059;-73
2022/07/01 02:47:38;;;;;;;7.03;1.70;;;15.00;99.90;;;;;;5115351;28;20097;-74
2022/07/01 02:50:07;;;;;;;4.75;2.20;;;14.90;99.90;;;;;;5114896;28;20053;-74
2022/07/01 02:52:35;;;;;;;3.38;1.90;;;14.90;99.90;;;;;;5115519;28;20127;-74
2022/07/01 02:55:02;;;;;;;4.80;1.85;;;14.90;99.90;;;;;;5113949;28;20087;-74
2022/07/01 02:57:29;;;;;;;3.10;1.80;;;14.80;99.90;;;;;;5115419;28;20491;-74
2022/07/01 02:59:56;;;;;;;2.67;1.70;;;14.80;99.90;;;;;;5113837;28;20047;-74
2022/07/01 03:02:23;;;;;;;5.50;2.38;;;14.80;99.90;;;;;;5114382;28;20048;-73
2022/07/01 03:04:53;;;;;;;3.03;1.75;;;14.80;99.90;;;;;;5114164;28;20492;-73
2022/07/01 03:07:20;;;;;;;3.30;2.03;;;14.70;99.90;;;;;;5113662;28;20427;-74
2022/07/01 03:09:47;;;;;;;3.83;2.00;;;14.70;99.90;;;;;;5113272;28;20055;-74
2022/07/01 03:12:27;;;;;;;4.50;2.05;;;14.70;99.90;;;;;;5115020;28;20052;-74
2022/07/01 03:14:55;;;;;;;5.40;2.03;;;14.70;99.90;;;;;;5113349;27;20519;-73
2022/07/01 03:17:22;;;;;;;3.30;2.47;;;14.70;99.90;;;;;;5113286;28;20054;-72
2022/07/01 03:19:51;;;;;;;5.95;2.55;;;14.60;99.90;;;;;;5115029;28;20193;-73
2022/07/01 03:22:20;;;;;;;7.38;2.25;;;14.60;99.90;;;;;;5114430;28;20055;-72
2022/07/01 03:24:47;;;;;;;5.10;2.65;;;14.60;99.90;;;;;;5113021;28;20055;-72
2022/07/01 03:27:14;;;;;;;6.47;2.85;;;14.60;99.90;;;;;;5112812;28;20502;-74
2022/07/01 03:29:41;;;;;;;4.47;2.53;;;14.60;99.90;;;;;;5114555;28;20097;-74
2022/07/01 03:32:09;;;;;;;3.17;2.28;;;14.70;99.90;;;;;;5113111;28;20052;-73
2022/07/01 03:34:37;;;;;;;4.20;2.58;;;14.60;99.90;;;;;;5113353;28;20086;-74
2022/07/01 03:37:04;;;;;;;7.80;3.00;;;14.60;99.90;;;;;;5122770;27;20055;-72
2022/07/01 03:39:33;;;;;;;6.40;2.85;;;14.70;99.90;;;;;;5134138;27;20084;-73
2022/07/01 03:42:00;;;;;;;4.88;2.55;;;14.60;99.90;;;;;;5136398;27;20077;-72
2022/07/01 03:44:27;;;;;;;4.55;2.33;;;14.70;99.90;;;;;;5138351;27;20047;-73
2022/07/01 03:46:54;;;;;;;8.38;3.05;;;14.70;99.90;;;;;;5117126;27;20051;-74
2022/07/01 03:49:22;;;;;;;4.63;2.65;;;14.70;99.90;;;;;;5135777;27;20050;-75
2022/07/01 03:51:49;;;;;;;6.22;2.67;;;14.90;99.90;;;;;;5121971;27;20063;-74
2022/07/01 03:54:32;;;;;;;6.63;2.72;;;15.10;99.90;;;;;;5117160;27;20047;-75
2022/07/01 03:57:03;;;;;;;5.00;2.67;;;15.30;99.90;;;;;;5126118;27;20483;-73
2022/07/01 03:59:34;;;;;;;5.57;2.97;;;15.40;99.90;;;;;;5131501;27;20043;-73
2022/07/01 04:02:01;;;;;;;5.38;3.00;;;15.30;99.90;;;;;;5151642;27;20131;-74
2022/07/01 04:04:29;;;;;;;6.63;2.80;;;15.50;99.90;;;;;;5130020;27;20424;-73
2022/07/01 04:06:58;;;;;;;9.68;3.00;;;15.60;99.90;;;;;;5146497;27;20277;-73
2022/07/01 04:09:26;;;;;;;5.45;2.40;;;15.70;99.90;;;;;;5148443;27;20050;-72
2022/07/01 04:11:53;;;;;;;6.40;2.92;;;15.90;99.90;;;;;;5126733;27;20043;-72
2022/07/01 04:14:23;;;;;;;5.32;2.85;;;15.90;99.90;;;;;;5146160;27;20046;-74
2022/07/01 04:16:51;;;;;;;4.43;2.53;;;15.90;99.90;;;;;;5145987;27;20054;-73
2022/07/01 04:19:18;;;;;;;5.95;2.80;;;15.90;99.90;;;;;;5131686;27;20047;-73
2022/07/01 04:24:32;;;;;;;5.78;3.05;;;15.60;99.90;;;;;;5149014;27;20478;-73
2022/07/01 04:26:59;;;;;;;4.30;2.75;;;15.70;99.90;;;;;;5128470;27;20047;-73
2022/07/01 04:29:29;;;;;;;5.00;2.97;;;15.70;99.90;;;;;;5128223;27;20043;-72
2022/07/01 04:31:56;;;;;;;5.30;3.08;;;15.70;99.90;;;;;;5147994;27;20081;-73
2022/07/01 04:34:23;;;;;;;6.22;3.03;;;15.60;99.90;;;;;;5122538;27;20397;-73
2022/07/01 04:36:50;;;;;;;6.40;3.22;;;15.70;99.90;;;;;;5124377;27;20072;-73
2022/07/01 04:39:16;;;;;;;7.13;3.00;;;15.80;99.90;;;;;;5125090;27;20087;-73
2022/07/01 04:42:01;;;;;;;6.03;3.38;;;15.80;99.90;;;;;;5126410;27;20464;-73
2022/07/01 04:44:31;;;;;;;6.18;4.10;;;15.80;99.90;;;;;;5128638;27;20043;-73
2022/07/01 04:46:58;;;;;;;4.80;3.72;;;15.70;99.90;;;;;;5149280;27;20051;-73
2022/07/01 04:49:25;;;;;;;4.80;3.60;;;15.60;99.90;;;;;;5123280;27;20054;-73
2022/07/01 04:51:52;;;;;;;6.25;3.80;;;15.40;99.90;;;;;;5121087;27;20494;-74
2022/07/01 04:54:19;;;;;;;5.47;4.07;;;15.30;99.90;;;;;;5119180;28;20054;-73
2022/07/01 04:56:46;;;;;;;4.57;3.67;;;15.30;99.90;;;;;;5132020;27;20119;-74
2022/07/01 04:59:14;;;;;;;10.02;3.90;;;15.20;99.90;;;;;;5123492;28;20047;-72
2022/07/01 05:01:42;;;;;;;7.53;4.28;;;15.30;99.90;;;;;;5116975;27;20050;-71
2022/07/01 05:04:10;;;;;;;7.47;4.35;;;15.30;99.90;;;;;;5126843;27;20039;-72
2022/07/01 05:06:37;;;;;;;8.13;4.15;;;15.20;99.90;;;;;;5151056;27;20039;-72
2022/07/01 05:09:04;;;;;;;7.72;4.10;;;15.20;99.90;;;;;;5127536;27;20597;-73
2022/07/01 05:11:31;;;;;;;7.60;5.03;;;15.30;99.90;;;;;;5144322;27;20125;-73
2022/07/01 05:13:58;;;;;;;7.07;5.22;;;15.30;99.90;;;;;;5142689;27;20046;-73
2022/07/01 05:16:25;;;;;;;8.27;5.32;;;15.50;99.90;;;;;;5145953;27;20051;-73
2022/07/01 05:24:22;;;;;;;10.20;6.53;;;15.60;99.90;;;;;;5126125;27;20067;-72
2022/07/01 05:26:49;;;;;;;10.18;6.90;;;15.70;99.90;;;;;;5147106;27;20054;-74
2022/07/01 05:29:16;;;;;;;11.07;6.90;;;15.70;99.90;;;;;;5128632;27;20456;-72
2022/07/01 05:31:43;;;;;;;11.00;7.80;;;15.80;99.90;;;;;;5145868;27;20050;-72
2022/07/01 05:34:12;;;;;;;13.23;7.40;;;15.70;99.90;;;;;;5127337;27;20047;-72
2022/07/01 05:36:38;;;;;;;15.13;8.63;;;15.80;99.90;;;;;;5146971;27;20055;-72
2022/07/01 05:39:05;;;;;;;14.82;9.65;;;15.90;99.90;;;;;;5128526;27;20459;-72
2022/07/01 05:41:33;;;;;;;15.73;9.70;;;15.90;99.90;;;;;;5127420;27;20047;-73
2022/07/01 05:43:59;;;;;;;15.80;10.60;;;16.00;99.90;;;;;;5127121;27;20150;-73
2022/07/01 05:46:26;;;;;;;15.13;11.07;;;15.90;99.90;;;;;;5143929;27;20047;-74
2022/07/01 05:48:53;;;;;;;18.17;12.55;;;15.90;99.90;;;;;;5124507;27;20055;-73
2022/07/01 05:51:21;;;;;;;17.90;11.63;;;15.80;99.90;;;;;;5130822;27;20058;-73
2022/07/01 05:53:48;;;;;;;20.85;12.73;;;15.80;99.90;;;;;;5149492;27;20490;-72
2022/07/01 05:56:15;;;;;;;16.88;12.25;;;15.70;99.90;;;;;;5131259;27;20444;-72
2022/07/01 05:58:42;;;;;;;18.00;11.82;;;15.80;99.90;;;;;;5127942;27;20502;-73
2022/07/01 06:01:09;;;;;;;17.15;11.45;;;15.90;99.90;;;;;;5131274;27;20107;-72
2022/07/01 06:03:37;;;;;;;20.50;12.75;;;16.00;99.90;;;;;;5122749;27;20486;-70
2022/07/01 06:06:04;;;;;;;17.52;11.48;;;16.10;99.90;;;;;;5130864;27;20047;-72
2022/07/01 06:08:33;;;;;;;17.38;11.70;;;16.20;99.90;;;;;;5149123;27;20045;-71
2022/07/01 06:11:00;;;;;;;22.58;13.20;;;16.30;99.90;;;;;;5127784;27;20047;-70
2022/07/01 06:13:28;;;;;;;21.30;12.88;;;16.40;99.90;;;;;;5147996;27;20050;-72
2022/07/01 06:15:57;;;;;;;18.63;12.30;;;16.40;99.90;;;;;;5155943;27;20062;-73
2022/07/01 06:18:24;;;;;;;23.88;12.40;;;16.50;99.90;;;;;;5138881;27;20395;-72
2022/07/01 06:20:51;;;;;;;20.77;12.45;;;16.60;99.90;;;;;;5126651;27;20051;-72
2022/07/01 06:23:17;;;;;;;22.52;12.38;;;16.60;99.90;;;;;;5136651;27;20047;-71
2022/07/01 06:25:46;;;;;;;31.25;14.35;;;16.70;99.90;;;;;;5136549;27;20047;-71
2022/07/01 06:28:13;;;;;;;20.40;13.90;;;16.70;99.90;;;;;;5117555;27;20099;-73
2022/07/01 06:30:43;;;;;;;26.02;12.77;;;16.80;99.90;;;;;;5130149;27;20051;-72
2022/07/01 06:33:11;;;;;;;21.55;14.50;;;16.80;99.90;;;;;;5156261;27;20122;-72
2022/07/01 06:35:38;;;;;;;26.15;14.73;;;16.90;99.90;;;;;;5156627;27;20045;-73
2022/07/01 06:38:05;;;;;;;17.83;13.27;;;17.00;99.90;;;;;;5138449;27;20047;-72
2022/07/01 06:40:32;;;;;;;27.95;15.07;;;17.10;99.90;;;;;;5155993;27;20053;-73
2022/07/01 06:43:00;;;;;;;23.65;13.55;;;17.20;99.90;;;;;;5118787;27;20059;-73
2022/07/01 06:45:27;;;;;;;27.45;13.32;;;17.20;99.90;;;;;;5117813;27;20047;-72
2022/07/01 06:47:54;;;;;;;21.65;13.48;;;17.30;99.90;;;;;;5137598;27;20065;-72
2022/07/01 06:50:21;;;;;;;20.30;13.50;;;17.30;99.90;;;;;;5137315;27;20055;-73
2022/07/01 06:52:48;;;;;;;19.27;13.65;;;17.30;99.90;;;;;;5135535;27;20043;-73
2022/07/01 06:55:15;;;;;;;19.30;13.50;;;17.30;99.90;;;;;;5135221;27;20050;-73
2022/07/01 06:57:42;;;;;;;18.98;12.70;;;17.30;99.90;;;;;;5136146;27;20453;-72
2022/07/01 07:00:11;;;;;;;24.85;13.45;;;17.40;99.90;;;;;;5117692;27;20445;-73
2022/07/01 07:02:39;;;;;;;30.42;15.82;;;17.40;99.90;;;;;;5139544;27;20854;-73
2022/07/01 07:05:07;;;;;;;26.13;14.63;;;17.40;99.90;;;;;;5137783;27;20072;-73
2022/07/01 07:07:34;;;;;;;16.90;12.95;;;17.30;99.90;;;;;;5148964;27;20050;-73
2022/07/01 07:10:00;;;;;;;18.35;12.75;;;17.30;99.90;;;;;;5116935;27;20050;-73
2022/07/01 07:12:27;;;;;;;21.02;14.43;;;17.40;99.90;;;;;;5117052;27;20051;-71
2022/07/01 07:14:54;;;;;;;16.55;11.82;;;17.40;99.90;;;;;;5135267;27;20048;-73
2022/07/01 07:17:22;;;;;;;21.25;13.50;;;17.40;99.90;;;;;;5116971;27;20075;-73
2022/07/01 07:19:49;;;;;;;22.67;13.15;;;17.40;99.90;;;;;;5117036;27;20054;-72
2022/07/01 07:22:16;;;;;;;19.95;13.75;;;17.40;99.90;;;;;;5122500;27;20043;-73
2022/07/01 07:24:43;;;;;;;19.35;12.90;;;17.40;99.90;;;;;;5141558;27;20046;-73
2022/07/01 07:27:10;;;;;;;20.95;12.77;;;17.40;99.90;;;;;;5089654;27;20054;-71
2022/07/01 07:29:37;;;;;;;21.88;14.75;;;17.50;99.90;;;;;;5136953;27;20046;-72
2022/07/01 07:32:04;;;;;;;18.02;13.18;;;17.50;99.90;;;;;;5116932;27;20461;-73
2022/07/01 07:34:34;;;;;;;19.67;13.93;;;17.50;99.90;;;;;;5135038;27;20047;-71
2022/07/01 07:37:01;;;;;;;20.80;14.47;;;17.60;99.90;;;;;;5154964;27;20119;-72
2022/07/01 07:39:28;;;;;;;20.13;14.80;;;17.70;99.90;;;;;;5137404;27;20054;-72
2022/07/01 07:41:55;;;;;;;17.52;14.30;;;17.70;99.90;;;;;;5155146;27;20058;-72
2022/07/01 07:44:22;;;;;;;19.70;13.70;;;17.60;99.90;;;;;;5136519;27;20050;-72
2022/07/01 07:46:48;;;;;;;18.90;13.75;;;17.70;99.90;;;;;;5137111;27;20103;-72
2022/07/01 07:49:15;;;;;;;16.90;12.55;;;17.70;99.90;;;;;;5137226;27;20050;-73
2022/07/01 07:51:44;;;;;;;18.83;12.23;;;17.70;99.90;;;;;;5136470;27;20091;-72
2022/07/01 07:54:10;;;;;;;18.08;12.55;;;17.70;99.90;;;;;;5136643;27;20054;-73
2022/07/01 07:56:37;;;;;;;19.33;12.68;;;17.70;99.90;;;;;;5155443;27;20050;-72
2022/07/01 07:59:05;;;;;;;18.42;13.15;;;17.70;99.90;;;;;;5136095;27;20046;-72
2022/07/01 08:01:32;;;;;;;17.42;12.60;;;17.90;99.90;;;;;;5122494;27;20436;-73
2022/07/01 08:03:58;;;;;;;15.35;11.23;;;18.00;99.90;;;;;;5132099;27;20058;-72
2022/07/01 08:06:25;;;;;;;14.65;11.90;;;18.40;99.90;;;;;;5133017;27;20055;-72
2022/07/01 08:08:54;;;;;;;18.58;12.00;;;18.70;99.90;;;;;;5115012;27;20055;-73
2022/07/01 08:11:20;;;;;;;13.98;10.93;;;19.00;99.90;;;;;;5121089;27;20046;-72
2022/07/01 08:13:47;;;;;;;18.27;11.48;;;19.10;99.90;;;;;;5148366;27;20051;-73
2022/07/01 08:16:15;;;;;;;17.25;11.35;;;19.40;99.90;;;;;;5123842;27;20066;-73
2022/07/01 08:18:42;;;;;;;16.63;11.23;;;19.80;99.90;;;;;;5135354;27;20051;-74
2022/07/01 08:21:08;;;;;;;15.63;11.43;;;20.20;99.90;;;;;;5127926;27;20050;-73
2022/07/01 08:23:36;;;;;;;21.75;10.95;;;20.70;99.90;;;;;;5119459;27;20078;-74
2022/07/01 08:26:04;;;;;;;15.98;9.18;;;21.00;99.90;;;;;;5125401;27;20112;-73
2022/07/01 08:28:31;;;;;;;12.15;7.90;;;21.10;99.90;;;;;;5144548;27;20491;-73
2022/07/01 08:30:58;;;;;;;12.88;8.07;;;20.90;99.90;;;;;;5122832;27;20111;-73
2022/07/01 08:33:25;;;;;;;11.77;8.55;;;20.60;99.90;;;;;;5117108;27;20592;-72
2022/07/01 08:35:51;;;;;;;12.02;7.82;;;20.40;99.90;;;;;;5144394;27;20043;-73
2022/07/01 08:38:18;;;;;;;10.98;8.38;;;20.20;99.90;;;;;;5124063;27;20495;-73
2022/07/01 08:40:46;;;;;;;10.45;8.05;;;20.30;99.90;;;;;;5141614;27;20471;-72
2022/07/01 08:43:14;;;;;;;11.98;7.63;;;20.70;99.90;;;;;;5120978;27;20504;-72
2022/07/01 08:45:41;;;;;;;13.13;7.45;;;21.70;99.90;;;;;;5133390;27;20464;-72
2022/07/01 08:48:08;;;;;;;10.32;6.10;;;22.10;99.90;;;;;;5115235;27;20490;-72
2022/07/01 08:50:38;;;;;;;11.15;6.03;;;22.00;99.90;;;;;;5137054;27;20051;-73
2022/07/01 08:53:05;;;;;;;8.63;5.70;;;21.90;99.90;;;;;;5122500;27;20050;-73
2022/07/01 08:56:40;;;;;;;5.95;4.28;;;21.70;99.90;;;;;;5116551;27;20555;-72
2022/07/01 08:58:21;;;;;;;6.07;3.67;;;22.00;99.90;;;;;;5121116;27;20047;-78
2022/07/01 09:00:48;;;;;;;10.65;4.72;;;22.40;99.90;;;;;;5122837;28;20047;-73
2022/07/01 09:03:15;;;;;;;8.60;4.90;;;22.90;99.90;;;;;;5137476;27;20079;-73
2022/07/01 09:05:50;;;;;;;9.63;5.15;;;23.40;99.90;;;;;;5126888;28;20051;-73
2022/07/01 09:08:17;;;;;;;10.18;5.05;;;23.60;99.90;;;;;;5136750;27;20055;-75
2022/07/01 09:10:44;;;;;;;7.55;4.72;;;24.00;99.90;;;;;;5132070;27;20414;-73
2022/07/01 09:13:12;;;;;;;8.10;4.10;;;24.30;99.90;;;;;;5122421;27;20055;-73
2022/07/01 09:15:42;;;;;;;8.20;4.07;;;24.40;99.90;;;;;;5116714;28;20539;-73
2022/07/01 09:18:12;;;;;;;7.93;4.03;;;24.60;99.90;;;;;;5114265;27;20051;-73
2022/07/01 09:20:40;;;;;;;9.05;4.07;;;24.70;99.00;;;;;;5118654;27;20319;-73
2022/07/01 09:23:10;;;;;;;9.15;4.20;;;24.70;97.70;;;;;;5144439;27;20047;-74
2022/07/01 09:25:39;;;;;;;5.57;3.88;;;24.20;98.00;;;;;;5128750;27;20144;-72
2022/07/01 09:28:12;;;;;;;6.28;4.03;;;24.00;98.20;;;;;;5142607;27;20394;-73
2022/07/01 09:30:42;;;;;;;7.38;4.07;;;23.70;98.30;;;;;;5120795;27;20050;-74
2022/07/01 09:33:10;;;;;;;;;;;24.40;98.60;;;;;;5153111;27;20046;-73
2022/07/01 09:35:37;;;;;;;6.65;4.47;;;24.90;96.60;;;;;;5123178;27;19919;-73
2022/07/01 09:38:05;;;;;;;6.80;3.80;;;25.00;97.90;;;;;;5156579;27;20383;-73
2022/07/01 09:40:53;;;;;;;9.93;4.15;;;25.20;97.10;;;;;;5156807;27;20506;-73
2022/07/01 09:43:22;;;;;;;11.27;3.80;;;25.20;94.90;;;;;;5135937;27;20055;-73
2022/07/01 09:45:59;;;;;;;6.35;2.67;;;25.20;96.10;;;;;;5120171;27;20046;-74
2022/07/01 09:48:28;;;;;;;5.78;2.65;;;25.10;95.50;;;;;;5143593;27;20088;-73
2022/07/01 09:50:55;;;;;;;4.97;2.22;;;25.00;95.00;;;;;;5128636;27;20575;-74
2022/07/01 09:53:22;;;;;;;5.90;2.08;;;24.60;95.00;;;;;;5143666;27;20047;-73
2022/07/01 09:55:49;;;;;;;7.75;2.67;;;24.20;93.90;;;;;;5135845;27;20047;-73
2022/07/01 09:58:16;;;;;;;11.25;2.90;;;24.40;94.30;;;;;;5134121;27;20544;-73
2022/07/01 10:00:44;;;;;;;10.15;3.63;;;24.30;94.80;;;;;;5143479;27;20122;-74
2022/07/01 10:03:13;;;;;;;6.93;2.80;;;24.30;95.00;;;;;;5121904;27;20490;-74
2022/07/01 10:05:46;;;;;;;6.05;2.25;;;23.90;94.60;;;;;;5142145;27;20039;-73
2022/07/01 10:08:29;;;;;;;8.20;3.10;;;23.70;94.70;;;;;;5125416;27;20054;-73
2022/07/01 10:11:12;;;;;;;9.25;3.08;;;23.90;95.30;;;;;;5126025;27;20063;-74
2022/07/01 10:13:41;;;;;;;5.22;2.70;;;24.10;95.00;;;;;;5135754;27;20094;-74
2022/07/01 10:16:09;;;;;;;4.83;2.23;;;24.10;94.80;;;;;;5121126;27;20092;-73
2022/07/01 10:18:37;;;;;;;4.55;2.08;;;24.60;95.10;;;;;;5124058;27;20369;-74
2022/07/01 10:21:05;;;;;;;12.27;3.47;;;25.20;94.20;;;;;;5123441;27;20051;-75
2022/07/01 10:23:39;;;;;;;5.25;2.88;;;25.40;92.90;;;;;;5123936;27;20043;-74
2022/07/01 10:26:08;;;;;;;8.88;3.63;;;25.70;92.70;;;;;;5120955;27;20039;-73
2022/07/01 10:28:43;;;;;;;9.70;3.23;;;26.00;92.90;;;;;;5136966;27;20083;-74
2022/07/01 10:31:15;;;;;;;4.78;2.95;;;26.40;91.30;;;;;;5121506;27;20091;-74
2022/07/01 10:33:49;;;;;;;4.30;2.30;;;26.70;91.50;;;;;;5116572;27;20406;-73
2022/07/01 10:36:27;;;;;;;6.00;2.90;;;26.70;89.90;;;;;;5134335;27;20078;-74
2022/07/01 10:39:13;;;;;;;4.53;2.90;;;26.40;90.00;;;;;;5126188;27;20112;-74
2022/07/01 10:41:44;;;;;;;5.72;2.83;;;26.20;88.60;;;;;;5128738;27;20054;-74
2022/07/01 10:44:13;;;;;;;7.10;3.60;;;26.00;90.90;;;;;;5116590;27;20066;-74
2022/07/01 10:46:43;;;;;;;3.83;3.00;;;25.90;90.50;;;;;;5134920;27;20827;-73
2022/07/01 10:49:13;;;;;;;4.88;3.38;;;25.40;90.30;;;;;;5123344;27;20055;-73
2022/07/01 10:51:48;;;;;;;8.20;3.30;;;24.80;90.60;;;;;;5153845;27;20054;-73
2022/07/01 10:54:49;;;;;;;6.68;2.90;;;24.60;91.30;;;;;;5132100;27;20138;-73
2022/07/01 10:57:41;;;;;;;8.63;3.22;;;24.60;91.90;;;;;;5141680;27;20108;-73
2022/07/01 11:00:32;;;;;;;4.50;3.13;;;24.30;91.50;;;;;;5131466;27;20055;-73
2022/07/01 11:03:19;;;;;;;6.63;3.00;;;23.90;91.90;;;;;;5139134;27;20096;-72
2022/07/01 11:05:50;;;;;;;8.93;3.13;;;23.40;93.10;;;;;;5123336;27;20070;-74
2022/07/01 11:08:17;;;;;;;4.05;1.80;;;22.60;94.90;;;;;;5141314;27;20489;-73
2022/07/01 11:10:45;;;;;;;7.18;1.75;;;21.90;96.70;;;;;;5130850;27;20050;-74
2022/07/01 11:13:15;;;;;;;5.70;1.50;;;21.30;98.70;;;;;;5125283;27;20509;-73
2022/07/01 11:15:46;;;;;;;2.72;1.30;;;21.20;99.50;;;;;;5154135;27;20099;-73
2022/07/01 11:18:13;;;;;;;;;;;20.70;99.90;;;;;;5144285;27;20122;-73
2022/07/01 11:20:40;;;;;;;6.10;1.80;;;20.50;99.90;;;;;;5118059;27;19923;-74
2022/07/01 11:23:08;;;;;;;5.75;1.63;;;20.40;99.90;;;;;;5124102;27;20540;-74
2022/07/01 11:25:35;;;;;;;4.38;1.08;;;20.20;99.90;;;;;;5144870;27;20053;-73
2022/07/01 11:28:02;;;;;;;2.78;1.08;;;20.10;99.90;;;;;;5131729;27;20047;-74
2022/07/01 11:30:29;;;;;;;2.35;1.02;;;20.00;99.90;;;;;;5123846;27;20051;-73
2022/07/01 11:32:58;;;;;;;3.90;1.10;;;19.80;99.90;;;;;;5142143;27;20046;-72
2022/07/01 11:41:01;;;;;;;7.00;1.90;;;20.60;99.90;;;;;;5115687;27;20054;-73
2022/07/01 11:43:29;;;;;;;4.50;1.30;;;21.00;99.90;;;;;;5133534;27;20070;-73
2022/07/01 11:46:00;;;;;;;4.05;1.08;;;21.50;99.90;;;;;;5155580;27;20046;-72
2022/07/01 11:48:32;;;;;;;3.53;1.08;;;22.00;99.90;;;;;;5130499;27;20567;-72
2022/07/01 11:50:59;;;;;;;3.58;1.20;;;22.30;99.20;;;;;;5133382;27;20117;-73
2022/07/01 11:53:28;;;;;;;4.97;1.00;;;22.10;98.90;;;;;;5133529;27;20051;-74
2022/07/01 11:55:55;;;;;;;2.03;1.10;;;22.10;98.60;;;;;;5126170;27;20155;-74
2022/07/01 11:58:22;;;;;;;3.88;1.70;;;22.00;98.50;;;;;;5127074;27;20046;-73
2022/07/01 12:00:50;;;;;;;3.55;1.02;;;21.90;98.30;;;;;;5154557;27;20047;-73
2022/07/01 12:03:31;;;;;;;4.25;1.40;;;22.10;98.20;;;;;;5132205;27;20067;-73
2022/07/01 12:05:58;;;;;;;4.05;1.00;;;22.20;97.60;;;;;;5116106;27;20082;-74
2022/07/01 12:08:26;;;;;;;3.25;1.30;;;23.00;97.30;;;;;;5133395;27;20136;-75
2022/07/01 12:10:57;;;;;;;6.13;1.90;;;23.50;97.00;;;;;;5138665;27;20891;-74
2022/07/01 12:13:25;;;;;;;4.30;1.50;;;23.50;96.10;;;;;;5136115;27;20085;-73
2022/07/01 12:15:53;;;;;;;5.13;1.42;;;23.50;96.50;;;;;;5140392;27;20336;-74
2022/07/01 12:18:20;;;;;;;3.83;1.30;;;23.90;96.60;;;;;;5133771;27;20051;-74
2022/07/01 12:20:51;;;;;;;6.80;1.67;;;23.90;95.70;;;;;;5114972;27;20384;-72
2022/07/01 12:23:19;;;;;;;4.57;1.48;;;23.60;95.10;;;;;;5140404;27;20398;-72
2022/07/01 12:25:50;;;;;;;5.07;1.42;;;23.80;95.00;;;;;;5117458;27;20549;-72
2022/07/01 12:28:39;;;;;;;3.72;1.10;;;23.60;94.70;;;;;;5135586;27;20481;-72
2022/07/01 12:31:08;;;;;;;10.13;1.35;;;23.40;93.80;;;;;;5131400;27;20420;-73
2022/07/01 12:33:37;;;;;;;3.17;1.35;;;23.40;94.20;;;;;;5132476;27;20103;-74
2022/07/01 12:36:06;;;;;;;6.28;1.80;;;23.40;94.40;;;;;;5123176;27;20047;-74
2022/07/01 12:38:33;;;;;;;2.85;1.40;;;23.90;94.80;;;;;;5135149;27;20043;-73
2022/07/01 12:41:01;;;;;;;6.88;1.65;;;24.50;94.50;;;;;;5133568;27;20047;-73
2022/07/01 12:43:29;;;;;;;5.60;1.48;;;25.00;93.90;;;;;;5118804;27;20066;-74
2022/07/01 12:45:59;;;;;;;6.50;1.38;;;24.70;93.30;;;;;;5153307;27;20115;-73
2022/07/01 12:48:26;;;;;;;4.47;1.55;;;24.60;93.30;;;;;;5154134;27;20046;-73
2022/07/01 12:50:56;;;;;;;10.80;1.77;;;24.50;93.40;;;;;;5154164;27;20054;-73
2022/07/01 12:53:24;;;;;;;3.42;1.05;;;24.20;93.20;;;;;;5153883;27;20061;-73
2022/07/01 12:55:52;;;;;;;5.40;1.02;;;24.10;92.80;;;;;;5135581;27;20553;-74
2022/07/01 12:58:21;;;;;;;4.78;0.80;;;24.30;92.50;;;;;;5154201;27;20057;-74
2022/07/01 13:00:50;;;;;;;4.30;1.25;;;25.00;91.80;;;;;;5131085;27;20111;-74
2022/07/01 13:03:22;;;;;;;5.72;0.90;;;25.40;91.50;;;;;;5123260;27;20146;-73